createdAt,value
2018-09-26T00:00:56.681Z,7.87
2018-09-26T00:01:56.721Z,7.86
2018-09-26T00:03:50.081Z,7.84
2018-09-26T00:04:49.717Z,7.78
2018-09-26T00:06:42.608Z,7.73
2018-09-26T00:07:42.582Z,7.73
2018-09-26T00:09:36.218Z,7.69
2018-09-26T00:10:36.192Z,7.60
2018-09-26T00:12:29.654Z,7.62
2018-09-26T00:13:29.551Z,7.77
2018-09-26T00:15:22.471Z,7.64
2018-09-26T00:16:22.425Z,7.69
2018-09-26T00:18:15.777Z,7.71
2018-09-26T00:19:15.487Z,7.64
2018-09-26T00:21:09.228Z,7.66
2018-09-26T00:22:08.638Z,7.62
2018-09-26T00:24:03.040Z,7.64
2018-09-26T00:25:02.005Z,7.55
2018-09-26T00:26:55.357Z,7.61
2018-09-26T00:27:55.057Z,7.61
2018-09-26T00:29:48.713Z,7.64
2018-09-26T00:30:48.712Z,7.61
2018-09-26T00:32:41.621Z,7.58
2018-09-26T00:33:41.574Z,7.44
2018-09-26T00:35:34.591Z,7.47
2018-09-26T00:36:35.239Z,7.47
2018-09-26T00:38:27.915Z,7.57
2018-09-26T00:39:27.915Z,7.49
2018-09-26T00:41:21.335Z,7.47
2018-09-26T00:42:21.260Z,7.44
2018-09-26T00:44:15.192Z,7.50
2018-09-26T00:45:14.343Z,7.46
2018-09-26T00:47:09.747Z,7.46
2018-09-26T00:48:07.918Z,7.43
2018-09-26T00:50:01.675Z,7.40
2018-09-26T00:51:01.557Z,7.36
2018-09-26T00:52:55.027Z,7.39
2018-09-26T00:53:54.619Z,7.42
2018-09-26T00:55:48.323Z,7.42
2018-09-26T00:56:47.971Z,7.31
2018-09-26T00:58:42.242Z,7.33
2018-09-26T00:59:41.587Z,7.28
2018-09-26T01:01:35.097Z,7.31
2018-09-26T01:02:35.002Z,7.36
2018-09-26T01:04:29.438Z,7.26
2018-09-26T01:05:29.369Z,7.34
2018-09-26T01:07:22.688Z,7.28
2018-09-26T01:08:22.423Z,7.33
2018-09-26T01:10:15.789Z,7.16
2018-09-26T01:11:17.587Z,7.29
2018-09-26T01:13:08.612Z,7.28
2018-09-26T01:14:08.583Z,7.26
2018-09-26T01:16:01.763Z,7.34
2018-09-26T01:17:01.705Z,7.33
2018-09-26T01:18:54.657Z,7.29
2018-09-26T01:19:54.607Z,7.21
2018-09-26T01:21:47.943Z,7.29
2018-09-26T01:22:47.444Z,7.21
2018-09-26T01:24:40.541Z,7.21
2018-09-26T01:25:40.522Z,7.25
2018-09-26T01:27:34.235Z,7.16
2018-09-26T01:28:34.181Z,7.18
2018-09-26T01:30:27.073Z,7.21
2018-09-26T01:31:27.065Z,7.22
2018-09-26T01:33:20.440Z,7.22
2018-09-26T01:34:20.103Z,7.24
2018-09-26T01:36:14.318Z,7.25
2018-09-26T01:37:13.991Z,7.21
2018-09-26T01:39:08.237Z,7.26
2018-09-26T01:40:07.635Z,7.19
2018-09-26T01:42:00.850Z,7.29
2018-09-26T01:43:01.279Z,7.24
2018-09-26T01:44:53.925Z,7.18
2018-09-26T01:45:54.108Z,7.21
2018-09-26T01:47:48.483Z,7.22
2018-09-26T01:48:48.220Z,7.25
2018-09-26T01:50:41.853Z,7.24
2018-09-26T01:51:41.579Z,7.22
2018-09-26T01:53:35.268Z,7.28
2018-09-26T01:54:34.911Z,7.21
2018-09-26T01:56:28.586Z,7.22
2018-09-26T01:57:28.281Z,7.19
2018-09-26T01:59:21.936Z,7.18
2018-09-26T02:00:21.624Z,7.22
2018-09-26T02:02:15.013Z,7.11
2018-09-26T02:03:15.288Z,7.10
2018-09-26T02:05:08.422Z,7.15
2018-09-26T02:06:08.398Z,7.11
2018-09-26T02:08:04.532Z,7.26
2018-09-26T02:09:04.514Z,7.07
2018-09-26T02:10:57.605Z,7.10
2018-09-26T02:11:57.567Z,7.18
2018-09-26T02:13:51.340Z,7.15
2018-09-26T02:14:50.944Z,7.22
2018-09-26T02:16:44.110Z,7.24
2018-09-26T02:17:44.135Z,7.15
2018-09-26T02:19:37.749Z,7.18
2018-09-26T02:20:37.988Z,7.16
2018-09-26T02:22:30.967Z,7.24
2018-09-26T02:23:30.514Z,7.24
2018-09-26T02:25:24.872Z,7.22
2018-09-26T02:26:25.096Z,7.22
2018-09-26T02:28:21.527Z,7.25
2018-09-26T02:29:18.606Z,7.24
2018-09-26T02:31:11.859Z,7.21
2018-09-26T02:32:11.834Z,7.24
2018-09-26T02:34:05.325Z,7.28
2018-09-26T02:35:05.210Z,7.19
2018-09-26T02:36:58.659Z,7.21
2018-09-26T02:37:58.225Z,7.18
2018-09-26T02:39:51.828Z,7.21
2018-09-26T02:40:52.160Z,7.13
2018-09-26T02:42:44.594Z,7.21
2018-09-26T02:43:44.696Z,7.22
2018-09-26T02:45:37.394Z,7.07
2018-09-26T02:46:37.604Z,7.11
2018-09-26T02:48:32.215Z,7.07
2018-09-26T02:49:31.204Z,7.07
2018-09-26T02:51:24.076Z,7.10
2018-09-26T02:52:23.822Z,7.07
2018-09-26T02:54:18.281Z,7.15
2018-09-26T02:55:18.183Z,7.11
2018-09-26T02:57:11.587Z,7.24
2018-09-26T02:58:11.477Z,7.19
2018-09-26T03:00:04.839Z,7.04
2018-09-26T03:01:04.819Z,7.10
2018-09-26T03:02:57.781Z,7.07
2018-09-26T03:03:57.715Z,7.18
2018-09-26T03:05:51.111Z,7.16
2018-09-26T03:06:51.153Z,7.13
2018-09-26T03:08:44.511Z,7.13
2018-09-26T03:09:44.478Z,7.08
2018-09-26T03:11:42.363Z,7.07
2018-09-26T03:12:42.289Z,7.06
2018-09-26T03:14:35.688Z,7.10
2018-09-26T03:15:35.596Z,7.13
2018-09-26T03:17:30.071Z,7.10
2018-09-26T03:18:30.056Z,7.08
2018-09-26T03:20:24.005Z,7.07
2018-09-26T03:21:23.033Z,7.08
2018-09-26T03:23:16.978Z,7.16
2018-09-26T03:24:17.212Z,7.07
2018-09-26T03:26:10.674Z,7.04
2018-09-26T03:27:10.680Z,7.00
2018-09-26T03:29:04.128Z,6.97
2018-09-26T03:30:03.960Z,7.03
2018-09-26T03:31:58.428Z,7.03
2018-09-26T03:32:58.251Z,7.01
2018-09-26T03:34:51.714Z,7.00
2018-09-26T03:35:51.653Z,7.01
2018-09-26T03:37:45.219Z,6.89
2018-09-26T03:38:45.024Z,6.96
2018-09-26T03:40:38.475Z,6.82
2018-09-26T03:41:38.418Z,6.86
2018-09-26T03:43:31.759Z,6.86
2018-09-26T03:44:31.762Z,6.79
2018-09-26T03:46:25.039Z,6.78
2018-09-26T03:47:25.037Z,6.81
2018-09-26T03:49:17.699Z,6.91
2018-09-26T03:50:18.621Z,6.92
2018-09-26T03:52:11.484Z,6.92
2018-09-26T03:53:12.028Z,6.92
2018-09-26T03:55:05.370Z,6.92
2018-09-26T03:56:04.930Z,7.00
2018-09-26T03:57:58.315Z,7.00
2018-09-26T03:58:58.387Z,6.89
2018-09-26T04:00:54.360Z,7.00
2018-09-26T04:01:51.686Z,6.97
2018-09-26T04:03:46.037Z,7.13
2018-09-26T04:04:46.092Z,7.15
2018-09-26T04:06:39.383Z,7.24
2018-09-26T04:07:39.380Z,7.24
2018-09-26T04:09:32.762Z,7.28
2018-09-26T04:10:32.779Z,7.26
2018-09-26T04:12:26.137Z,7.22
2018-09-26T04:13:26.069Z,7.18
2018-09-26T04:15:19.218Z,7.22
2018-09-26T04:16:19.417Z,7.24
2018-09-26T04:18:12.876Z,7.10
2018-09-26T04:19:12.731Z,7.03
2018-09-26T04:21:05.848Z,7.13
2018-09-26T04:22:08.392Z,7.06
2018-09-26T04:23:59.500Z,7.22
2018-09-26T04:24:59.188Z,7.29
2018-09-26T04:26:52.931Z,7.34
2018-09-26T04:27:52.826Z,7.33
2018-09-26T04:29:46.733Z,7.26
2018-09-26T04:30:46.432Z,7.19
2018-09-26T04:32:39.569Z,7.22
2018-09-26T04:33:39.360Z,7.06
2018-09-26T04:35:32.852Z,7.08
2018-09-26T04:36:32.583Z,7.03
2018-09-26T04:38:26.266Z,6.99
2018-09-26T04:39:25.947Z,7.03
2018-09-26T04:41:19.305Z,6.89
2018-09-26T04:42:19.249Z,6.86
2018-09-26T04:44:12.886Z,6.93
2018-09-26T04:45:13.186Z,6.83
2018-09-26T04:47:07.007Z,6.82
2018-09-26T04:48:06.998Z,6.79
2018-09-26T04:50:00.741Z,6.88
2018-09-26T04:51:00.895Z,6.88
2018-09-26T04:52:54.597Z,6.86
2018-09-26T04:53:53.985Z,6.91
2018-09-26T04:55:49.819Z,6.82
2018-09-26T04:58:03.013Z,6.83
2018-09-26T04:59:03.455Z,6.78
2018-09-26T05:00:56.660Z,6.88
2018-09-26T05:01:56.340Z,6.82
2018-09-26T05:03:49.168Z,6.89
2018-09-26T05:04:49.203Z,6.85
2018-09-26T05:06:42.378Z,6.93
2018-09-26T05:07:41.531Z,6.88
2018-09-26T05:09:34.450Z,6.92
2018-09-26T05:11:49.368Z,6.89
2018-09-26T05:12:50.298Z,7.01
2018-09-26T05:14:50.263Z,7.15
2018-09-26T05:15:50.172Z,7.19
2018-09-26T05:17:42.919Z,7.25
2018-09-26T05:18:45.512Z,7.22
2018-09-26T05:20:36.374Z,7.31
2018-09-26T05:21:36.278Z,7.39
2018-09-26T05:23:29.819Z,7.36
2018-09-26T05:24:29.416Z,7.37
2018-09-26T05:26:22.760Z,7.36
2018-09-26T05:27:22.872Z,7.42
2018-09-26T05:29:16.279Z,7.28
2018-09-26T05:30:16.150Z,7.31
2018-09-26T05:32:10.276Z,7.24
2018-09-26T05:33:10.775Z,7.24
2018-09-26T05:35:10.097Z,7.21
2018-09-26T05:36:03.066Z,7.19
2018-09-26T05:37:56.802Z,7.25
2018-09-26T05:38:56.985Z,7.25
2018-09-26T05:40:50.218Z,7.18
2018-09-26T05:41:49.808Z,7.16
2018-09-26T05:43:46.074Z,7.29
2018-09-26T05:44:44.103Z,7.22
2018-09-26T05:46:37.871Z,7.31
2018-09-26T05:47:37.449Z,7.36
2018-09-26T05:49:31.213Z,7.31
2018-09-26T05:50:30.844Z,7.33
2018-09-26T05:52:24.617Z,7.33
2018-09-26T05:53:24.527Z,7.31
2018-09-26T05:55:17.549Z,7.42
2018-09-26T05:56:17.525Z,7.44
2018-09-26T05:58:15.439Z,7.57
2018-09-26T05:59:15.434Z,7.60
2018-09-26T06:01:08.897Z,7.58
2018-09-26T06:02:09.351Z,7.55
2018-09-26T06:04:02.573Z,7.66
2018-09-26T06:05:02.573Z,7.68
2018-09-26T06:06:55.979Z,7.74
2018-09-26T06:07:55.760Z,7.74
2018-09-26T06:09:49.247Z,7.74
2018-09-26T06:10:49.239Z,7.84
2018-09-26T06:12:42.039Z,7.86
2018-09-26T06:13:41.679Z,7.83
2018-09-26T06:15:35.350Z,7.87
2018-09-26T06:16:35.008Z,7.95
2018-09-26T06:18:28.739Z,7.98
2018-09-26T06:19:30.939Z,8.04
2018-09-26T06:21:22.070Z,8.16
2018-09-26T06:22:22.074Z,8.04
2018-09-26T06:24:15.000Z,8.12
2018-09-26T06:25:15.009Z,8.06
2018-09-26T06:27:08.452Z,8.21
2018-09-26T06:28:08.279Z,8.23
2018-09-26T06:30:01.786Z,8.29
2018-09-26T06:31:01.704Z,8.37
2018-09-26T06:32:55.774Z,8.44
2018-09-26T06:33:54.967Z,8.41
2018-09-26T06:35:48.053Z,8.53
2018-09-26T06:36:48.406Z,8.49
2018-09-26T06:38:41.745Z,8.55
2018-09-26T06:39:41.389Z,8.57
2018-09-26T06:41:35.086Z,8.71
2018-09-26T06:42:35.076Z,8.74
2018-09-26T06:44:28.377Z,8.88
2018-09-26T06:45:28.396Z,8.93
2018-09-26T06:47:21.565Z,8.96
2018-09-26T06:48:21.799Z,9.08
2018-09-26T06:50:15.120Z,9.11
2018-09-26T06:51:15.130Z,9.27
2018-09-26T06:53:08.451Z,9.41
2018-09-26T06:54:08.249Z,9.47
2018-09-26T06:56:01.797Z,9.65
2018-09-26T06:57:01.843Z,9.72
2018-09-26T06:58:55.767Z,9.69
2018-09-26T06:59:55.141Z,9.72
2018-09-26T07:01:48.584Z,9.99
2018-09-26T07:02:48.068Z,10.05
2018-09-26T07:04:41.493Z,10.28
2018-09-26T07:05:41.426Z,10.28
2018-09-26T07:07:34.785Z,10.60
2018-09-26T07:08:34.813Z,10.75
2018-09-26T07:10:28.752Z,10.87
2018-09-26T07:11:27.954Z,10.94
2018-09-26T07:13:21.295Z,11.00
2018-09-26T07:14:21.332Z,11.13
2018-09-26T07:16:14.672Z,11.18
2018-09-26T07:17:14.332Z,11.22
2018-09-26T07:19:09.101Z,11.28
2018-09-26T07:20:07.500Z,11.27
2018-09-26T07:22:00.894Z,11.38
2018-09-26T07:23:00.876Z,11.54
2018-09-26T07:24:54.267Z,11.36
2018-09-26T07:25:53.929Z,11.46
2018-09-26T07:27:47.600Z,11.49
2018-09-26T07:28:47.588Z,11.64
2018-09-26T07:30:42.036Z,11.73
2018-09-26T07:31:41.634Z,11.61
2018-09-26T07:33:35.297Z,11.59
2018-09-26T07:34:35.300Z,11.58
2018-09-26T07:36:28.652Z,11.54
2018-09-26T07:37:28.664Z,11.54
2018-09-26T07:39:21.973Z,11.62
2018-09-26T07:40:21.218Z,11.52
2018-09-26T07:42:14.890Z,11.64
2018-09-26T07:43:14.592Z,11.58
2018-09-26T07:45:09.951Z,11.64
2018-09-26T07:46:09.236Z,11.62
2018-09-26T07:48:02.700Z,11.69
2018-09-26T07:49:02.325Z,11.71
2018-09-26T07:50:56.049Z,11.79
2018-09-26T07:51:56.059Z,11.80
2018-09-26T07:53:49.433Z,11.87
2018-09-26T07:54:49.076Z,11.97
2018-09-26T07:56:42.270Z,12.05
2018-09-26T07:57:42.508Z,12.18
2018-09-26T07:59:35.676Z,12.30
2018-09-26T08:00:35.643Z,12.28
2018-09-26T08:02:28.977Z,12.47
2018-09-26T08:03:29.069Z,12.50
2018-09-26T08:05:22.943Z,12.44
2018-09-26T08:06:22.296Z,12.54
2018-09-26T08:08:15.712Z,12.69
2018-09-26T08:09:15.386Z,12.73
2018-09-26T08:11:09.144Z,12.84
2018-09-26T08:12:09.055Z,12.86
2018-09-26T08:14:02.415Z,12.93
2018-09-26T08:15:02.421Z,12.95
2018-09-26T08:16:55.795Z,13.04
2018-09-26T08:17:55.769Z,12.93
2018-09-26T08:19:49.265Z,12.84
2018-09-26T08:20:49.124Z,12.88
2018-09-26T08:22:43.108Z,12.84
2018-09-26T08:23:42.492Z,12.95
2018-09-26T08:25:35.419Z,12.96
2018-09-26T08:26:35.390Z,13.06
2018-09-26T08:28:29.324Z,13.11
2018-09-26T08:29:28.771Z,13.14
2018-09-26T08:31:21.445Z,13.21
2018-09-26T08:32:21.407Z,13.32
2018-09-26T08:34:16.186Z,13.26
2018-09-26T08:35:16.126Z,13.24
2018-09-26T08:37:09.724Z,13.30
2018-09-26T08:38:10.084Z,13.26
2018-09-26T08:40:03.331Z,13.39
2018-09-26T08:41:03.330Z,13.38
2018-09-26T08:42:56.526Z,13.53
2018-09-26T08:43:56.764Z,13.57
2018-09-26T08:45:50.145Z,13.68
2018-09-26T08:46:50.074Z,13.67
2018-09-26T08:48:43.156Z,13.73
2018-09-26T08:49:43.425Z,13.76
2018-09-26T08:51:36.811Z,13.72
2018-09-26T08:52:36.807Z,13.76
2018-09-26T08:54:30.163Z,13.82
2018-09-26T08:55:29.856Z,13.94
2018-09-26T08:57:23.615Z,14.08
2018-09-26T08:58:23.521Z,14.08
2018-09-26T09:00:17.010Z,14.09
2018-09-26T09:01:16.954Z,14.22
2018-09-26T09:03:09.805Z,14.30
2018-09-26T09:04:09.771Z,14.30
2018-09-26T09:06:04.211Z,14.44
2018-09-26T09:07:04.106Z,14.45
2018-09-26T09:08:57.566Z,14.51
2018-09-26T09:09:57.221Z,14.53
2018-09-26T09:11:50.473Z,14.44
2018-09-26T09:12:50.418Z,14.44
2018-09-26T09:14:43.319Z,14.33
2018-09-26T09:15:43.309Z,14.38
2018-09-26T09:17:39.296Z,14.28
2018-09-26T09:18:36.622Z,14.36
2018-09-26T09:20:29.591Z,14.31
2018-09-26T09:21:29.217Z,14.37
2018-09-26T09:23:22.940Z,14.34
2018-09-26T09:24:22.915Z,14.33
2018-09-26T09:26:16.392Z,14.30
2018-09-26T09:27:15.954Z,14.31
2018-09-26T09:29:09.600Z,14.36
2018-09-26T09:30:09.584Z,14.41
2018-09-26T09:32:02.946Z,14.55
2018-09-26T09:33:02.967Z,14.63
2018-09-26T09:34:56.297Z,14.66
2018-09-26T09:35:56.058Z,14.64
2018-09-26T09:37:49.405Z,14.74
2018-09-26T09:38:49.640Z,14.73
2018-09-26T09:40:43.035Z,14.79
2018-09-26T09:41:43.013Z,14.82
2018-09-26T09:43:37.412Z,14.79
2018-09-26T09:44:37.411Z,14.79
2018-09-26T09:46:30.759Z,14.82
2018-09-26T09:47:30.794Z,14.92
2018-09-26T09:49:24.207Z,15.04
2018-09-26T09:50:24.274Z,14.96
2018-09-26T09:52:18.573Z,15.14
2018-09-26T09:53:18.549Z,15.22
2018-09-26T09:55:12.138Z,15.29
2018-09-26T09:56:11.801Z,15.29
2018-09-26T09:58:05.321Z,15.30
2018-09-26T09:59:05.237Z,15.35
2018-09-26T10:00:58.649Z,15.40
2018-09-26T10:01:58.306Z,15.52
2018-09-26T10:03:52.071Z,15.66
2018-09-26T10:04:51.911Z,15.76
2018-09-26T10:06:45.388Z,15.85
2018-09-26T10:07:45.358Z,15.93
2018-09-26T10:09:38.765Z,16.02
2018-09-26T10:10:38.414Z,16.00
2018-09-26T10:12:34.357Z,16.13
2018-09-26T10:13:32.094Z,16.33
2018-09-26T10:15:25.487Z,16.36
2018-09-26T10:16:25.427Z,16.36
2018-09-26T10:18:20.578Z,16.32
2018-09-26T10:19:18.853Z,16.57
2018-09-26T10:21:12.202Z,16.55
2018-09-26T10:22:12.166Z,16.49
2018-09-26T10:24:05.585Z,16.55
2018-09-26T10:25:05.271Z,16.55
2018-09-26T10:26:58.521Z,16.65
2018-09-26T10:27:58.414Z,16.72
2018-09-26T10:29:51.917Z,16.79
2018-09-26T10:30:51.780Z,16.70
2018-09-26T10:32:45.285Z,16.90
2018-09-26T10:33:45.172Z,16.97
2018-09-26T10:35:39.154Z,16.95
2018-09-26T10:36:38.525Z,16.99
2018-09-26T10:38:31.917Z,17.01
2018-09-26T10:39:31.978Z,17.02
2018-09-26T10:41:26.355Z,17.13
2018-09-26T10:42:26.266Z,17.10
2018-09-26T10:44:19.697Z,17.09
2018-09-26T10:45:19.700Z,17.02
2018-09-26T10:47:12.721Z,16.87
2018-09-26T10:48:13.050Z,16.87
2018-09-26T10:50:06.460Z,16.80
2018-09-26T10:51:06.091Z,16.79
2018-09-26T10:52:59.812Z,16.70
2018-09-26T10:53:59.458Z,16.72
2018-09-26T10:55:53.152Z,16.73
2018-09-26T10:56:53.166Z,16.74
2018-09-26T10:58:46.544Z,16.84
2018-09-26T10:59:47.821Z,16.87
2018-09-26T11:01:39.243Z,16.67
2018-09-26T11:02:39.330Z,16.70
2018-09-26T11:04:32.330Z,16.64
2018-09-26T11:05:32.280Z,16.69
2018-09-26T11:07:25.403Z,16.76
2018-09-26T11:08:25.749Z,16.76
2018-09-26T11:10:19.152Z,16.87
2018-09-26T11:11:19.021Z,16.90
2018-09-26T11:13:12.479Z,17.04
2018-09-26T11:14:12.382Z,17.01
2018-09-26T11:16:06.389Z,17.09
2018-09-26T11:17:06.412Z,17.14
2018-09-26T11:19:03.280Z,17.09
2018-09-26T11:20:00.689Z,17.07
2018-09-26T11:21:53.603Z,17.07
2018-09-26T11:22:53.599Z,17.24
2018-09-26T11:24:46.509Z,17.25
2018-09-26T11:25:46.415Z,17.17
2018-09-26T11:27:39.849Z,17.30
2018-09-26T11:28:39.817Z,17.28
2018-09-26T11:30:33.218Z,17.31
2018-09-26T11:31:33.520Z,17.28
2018-09-26T11:33:26.578Z,17.32
2018-09-26T11:34:26.299Z,17.22
2018-09-26T11:36:19.443Z,17.12
2018-09-26T11:37:19.114Z,17.09
2018-09-26T11:39:13.839Z,17.10
2018-09-26T11:40:13.917Z,17.06
2018-09-26T11:42:07.238Z,17.12
2018-09-26T11:43:07.191Z,17.16
2018-09-26T11:45:00.636Z,17.19
2018-09-26T11:46:00.254Z,17.19
2018-09-26T11:47:54.508Z,17.28
2018-09-26T11:48:53.912Z,17.32
2018-09-26T11:50:47.317Z,17.22
2018-09-26T11:51:47.289Z,17.25
2018-09-26T11:53:40.191Z,17.07
2018-09-26T11:54:40.183Z,17.07
2018-09-26T11:56:34.625Z,16.91
2018-09-26T11:57:32.750Z,16.87
2018-09-26T11:59:26.212Z,16.79
2018-09-26T12:00:26.494Z,16.79
2018-09-26T12:02:19.422Z,16.90
2018-09-26T12:03:19.515Z,16.79
2018-09-26T12:05:12.461Z,16.83
2018-09-26T12:06:12.208Z,16.82
2018-09-26T12:08:08.193Z,17.02
2018-09-26T12:09:08.285Z,17.01
2018-09-26T12:11:01.745Z,17.09
2018-09-26T12:12:01.433Z,17.13
2018-09-26T12:13:55.001Z,17.22
2018-09-26T12:14:54.312Z,17.22
2018-09-26T12:16:51.109Z,17.20
2018-09-26T12:17:50.495Z,17.24
2018-09-26T12:19:43.896Z,17.28
2018-09-26T12:20:43.904Z,17.28
2018-09-26T12:22:36.999Z,17.37
2018-09-26T12:23:37.235Z,17.39
2018-09-26T12:25:30.680Z,17.39
2018-09-26T12:26:30.308Z,17.35
2018-09-26T12:28:23.848Z,17.38
2018-09-26T12:29:23.998Z,17.39
2018-09-26T12:31:17.358Z,17.38
2018-09-26T12:32:17.303Z,17.39
2018-09-26T12:34:10.709Z,17.34
2018-09-26T12:35:10.692Z,17.37
2018-09-26T12:37:04.914Z,17.39
2018-09-26T12:38:03.603Z,17.41
2018-09-26T12:39:56.989Z,17.43
2018-09-26T12:40:56.942Z,17.45
2018-09-26T12:42:51.777Z,17.43
2018-09-26T12:43:49.840Z,17.38
2018-09-26T12:45:42.732Z,17.39
2018-09-26T12:46:42.753Z,17.46
2018-09-26T12:48:36.167Z,17.52
2018-09-26T12:49:35.768Z,17.50
2018-09-26T12:51:30.009Z,17.59
2018-09-26T12:52:29.061Z,17.62
2018-09-26T12:54:22.621Z,17.54
2018-09-26T12:55:22.362Z,17.68
2018-09-26T12:57:16.817Z,17.65
2018-09-26T12:58:15.701Z,17.62
2018-09-26T13:00:08.302Z,17.66
2018-09-26T13:01:10.831Z,17.68
2018-09-26T13:03:02.034Z,17.71
2018-09-26T13:04:02.028Z,17.72
2018-09-26T13:05:55.357Z,17.66
2018-09-26T13:06:54.997Z,17.71
2018-09-26T13:08:48.707Z,17.57
2018-09-26T13:09:48.358Z,17.62
2018-09-26T13:11:41.680Z,17.68
2018-09-26T13:12:42.096Z,17.71
2018-09-26T13:14:34.589Z,17.65
2018-09-26T13:15:34.404Z,17.68
2018-09-26T13:17:29.425Z,17.71
2018-09-26T13:18:27.601Z,17.66
2018-09-26T13:20:20.989Z,17.66
2018-09-26T13:21:21.148Z,17.68
2018-09-26T13:23:16.819Z,17.69
2018-09-26T13:24:16.788Z,17.71
2018-09-26T13:26:10.614Z,17.69
2018-09-26T13:27:09.981Z,17.71
2018-09-26T13:29:03.423Z,17.68
2018-09-26T13:30:03.037Z,17.87
2018-09-26T13:31:58.398Z,17.81
2018-09-26T13:32:56.404Z,17.83
2018-09-26T13:34:50.225Z,17.86
2018-09-26T13:35:49.919Z,17.88
2018-09-26T13:37:43.581Z,17.94
2018-09-26T13:38:43.609Z,17.91
2018-09-26T13:40:37.472Z,17.91
2018-09-26T13:41:36.939Z,17.94
2018-09-26T13:43:30.352Z,17.91
2018-09-26T13:44:30.048Z,17.93
2018-09-26T13:46:23.770Z,17.94
2018-09-26T13:47:23.715Z,18.02
2018-09-26T13:49:17.008Z,18.02
2018-09-26T13:50:17.084Z,18.03
2018-09-26T13:52:10.485Z,17.94
2018-09-26T13:53:10.667Z,17.97
2018-09-26T13:55:06.094Z,18.01
2018-09-26T13:56:06.396Z,18.01
2018-09-26T13:58:00.796Z,18.05
2018-09-26T13:58:59.699Z,18.03
2018-09-26T14:00:52.260Z,18.08
2018-09-26T14:01:52.255Z,18.15
2018-09-26T14:03:45.517Z,18.09
2018-09-26T14:04:45.545Z,18.08
2018-09-26T14:06:38.444Z,18.09
2018-09-26T14:07:38.406Z,18.05
2018-09-26T14:09:31.839Z,18.06
2018-09-26T14:10:31.768Z,18.09
2018-09-26T14:12:24.881Z,18.05
2018-09-26T14:13:25.102Z,18.09
2018-09-26T14:15:18.488Z,18.13
2018-09-26T14:16:18.194Z,18.12
2018-09-26T14:18:13.688Z,18.18
2018-09-26T14:19:12.877Z,18.17
2018-09-26T14:21:06.310Z,18.09
2018-09-26T14:22:05.942Z,18.03
2018-09-26T14:24:00.165Z,18.09
2018-09-26T14:24:59.591Z,18.11
2018-09-26T14:26:54.142Z,18.13
2018-09-26T14:27:54.004Z,18.08
2018-09-26T14:29:47.416Z,18.21
2018-09-26T14:30:47.502Z,18.26
2018-09-26T14:32:40.749Z,18.38
2018-09-26T14:33:40.766Z,18.34
2018-09-26T14:35:34.106Z,18.33
2018-09-26T14:36:34.078Z,18.42
2018-09-26T14:38:29.500Z,18.41
2018-09-26T14:39:27.018Z,18.38
2018-09-26T14:41:20.446Z,18.42
2018-09-26T14:42:20.716Z,18.43
2018-09-26T14:44:14.176Z,18.36
2018-09-26T14:45:14.093Z,18.38
2018-09-26T14:47:07.512Z,18.34
2018-09-26T14:48:07.400Z,18.34
2018-09-26T14:50:01.741Z,18.45
2018-09-26T14:51:01.830Z,18.38
2018-09-26T14:52:55.260Z,18.43
2018-09-26T14:53:55.183Z,18.38
2018-09-26T14:55:48.229Z,18.34
2018-09-26T14:56:48.492Z,18.36
2018-09-26T14:58:41.887Z,18.39
2018-09-26T14:59:41.876Z,18.39
2018-09-26T15:01:34.986Z,18.31
2018-09-26T15:02:35.223Z,18.33
2018-09-26T15:04:28.709Z,18.27
2018-09-26T15:05:28.645Z,18.28
2018-09-26T15:07:22.155Z,18.21
2018-09-26T15:08:21.794Z,18.31
2018-09-26T15:10:16.446Z,18.24
2018-09-26T15:11:16.373Z,18.21
2018-09-26T15:13:11.314Z,18.27
2018-09-26T15:14:11.279Z,18.24
2018-09-26T15:16:03.666Z,18.24
2018-09-26T15:17:03.605Z,18.30
2018-09-26T15:18:56.999Z,18.27
2018-09-26T15:19:57.001Z,18.26
2018-09-26T15:21:50.348Z,18.18
2018-09-26T15:22:51.918Z,18.24
2018-09-26T15:24:43.723Z,18.28
2018-09-26T15:25:43.652Z,18.21
2018-09-26T15:27:37.117Z,18.20
2018-09-26T15:28:37.140Z,18.11
2018-09-26T15:30:31.098Z,18.13
2018-09-26T15:31:30.515Z,18.17
2018-09-26T15:33:24.065Z,18.13
2018-09-26T15:34:23.605Z,18.03
2018-09-26T15:36:17.391Z,18.11
2018-09-26T15:37:17.334Z,18.11
2018-09-26T15:39:10.324Z,18.13
2018-09-26T15:40:10.700Z,18.08
2018-09-26T15:42:04.009Z,18.12
2018-09-26T15:43:04.030Z,18.12
2018-09-26T15:44:56.647Z,18.11
2018-09-26T15:45:56.502Z,18.03
2018-09-26T15:47:50.140Z,17.97
2018-09-26T15:48:50.285Z,17.93
2018-09-26T15:50:43.851Z,17.87
2018-09-26T15:51:43.812Z,17.93
2018-09-26T15:53:36.727Z,17.87
2018-09-26T15:54:36.654Z,17.79
2018-09-26T15:56:31.358Z,17.88
2018-09-26T15:57:30.270Z,17.90
2018-09-26T15:59:23.682Z,17.66
2018-09-26T16:00:23.803Z,17.83
2018-09-26T16:02:17.152Z,17.63
2018-09-26T16:03:17.076Z,17.63
2018-09-26T16:05:10.941Z,17.68
2018-09-26T16:06:10.416Z,17.68
2018-09-26T16:08:03.929Z,17.63
2018-09-26T16:09:03.738Z,17.52
2018-09-26T16:10:58.698Z,17.43
2018-09-26T16:11:57.106Z,17.47
2018-09-26T16:13:51.636Z,17.37
2018-09-26T16:14:51.548Z,17.37
2018-09-26T16:16:44.472Z,17.35
2018-09-26T16:17:44.449Z,17.37
2018-09-26T16:19:38.072Z,17.41
2018-09-26T16:20:37.776Z,17.35
2018-09-26T16:22:31.492Z,17.17
2018-09-26T16:23:31.171Z,17.22
2018-09-26T16:25:24.578Z,17.19
2018-09-26T16:26:24.505Z,17.22
2018-09-26T16:28:17.533Z,17.07
2018-09-26T16:29:17.071Z,17.07
2018-09-26T16:31:10.781Z,17.09
2018-09-26T16:32:10.212Z,16.99
2018-09-26T16:34:03.629Z,16.88
2018-09-26T16:35:03.602Z,16.88
2018-09-26T16:36:56.828Z,16.84
2018-09-26T16:37:56.199Z,16.88
2018-09-26T16:39:49.094Z,16.88
2018-09-26T16:40:49.320Z,16.79
2018-09-26T16:42:42.333Z,16.62
2018-09-26T16:43:41.991Z,16.77
2018-09-26T16:45:35.013Z,16.67
2018-09-26T16:46:35.116Z,16.61
2018-09-26T16:48:28.337Z,16.54
2018-09-26T16:49:28.031Z,16.49
2018-09-26T16:51:21.776Z,16.39
2018-09-26T16:52:21.836Z,16.29
2018-09-26T16:54:15.430Z,16.36
2018-09-26T16:55:15.611Z,16.29
2018-09-26T16:57:08.510Z,16.22
2018-09-26T16:58:08.317Z,16.13
2018-09-26T17:00:02.185Z,16.08
2018-09-26T17:01:01.649Z,16.02
2018-09-26T17:02:56.381Z,15.98
2018-09-26T17:03:54.764Z,16.00
2018-09-26T17:05:49.246Z,15.91
2018-09-26T17:06:48.679Z,15.77
2018-09-26T17:08:49.428Z,15.77
2018-09-26T17:09:41.795Z,15.69
2018-09-26T17:11:36.152Z,15.51
2018-09-26T17:12:35.913Z,15.52
2018-09-26T17:14:30.377Z,15.47
2018-09-26T17:15:30.333Z,15.41
2018-09-26T17:17:24.077Z,15.30
2018-09-26T17:18:23.678Z,15.32
2018-09-26T17:20:18.007Z,15.20
2018-09-26T17:21:17.382Z,15.11
2018-09-26T17:23:11.187Z,15.07
2018-09-26T17:24:10.546Z,14.90
2018-09-26T17:26:03.938Z,14.92
2018-09-26T17:27:03.866Z,14.87
2018-09-26T17:28:58.624Z,14.79
2018-09-26T17:29:57.231Z,14.67
2018-09-26T17:31:50.681Z,14.67
2018-09-26T17:32:50.059Z,14.66
2018-09-26T17:34:43.839Z,14.59
2018-09-26T17:35:43.470Z,14.53
2018-09-26T17:37:39.757Z,14.46
2018-09-26T17:38:39.458Z,14.38
2018-09-26T17:40:33.219Z,14.34
2018-09-26T17:41:33.118Z,14.27
2018-09-26T17:43:26.201Z,14.28
2018-09-26T17:44:25.667Z,14.22
2018-09-26T17:46:19.311Z,14.12
2018-09-26T17:47:19.079Z,14.19
2018-09-26T17:49:12.775Z,14.04
2018-09-26T17:50:13.708Z,14.01
2018-09-26T17:52:06.171Z,13.90
2018-09-26T17:53:05.800Z,13.97
2018-09-26T17:54:59.525Z,13.82
2018-09-26T17:55:59.143Z,13.86
2018-09-26T17:57:53.006Z,13.76
2018-09-26T17:58:52.553Z,13.79
2018-09-26T18:00:46.248Z,13.73
2018-09-26T18:01:45.919Z,13.73
2018-09-26T18:03:39.135Z,13.67
2018-09-26T18:04:38.768Z,13.72
2018-09-26T18:06:31.923Z,13.71
2018-09-26T18:07:31.992Z,13.57
2018-09-26T18:09:25.343Z,13.51
2018-09-26T18:10:25.382Z,13.51
2018-09-26T18:12:18.757Z,13.43
2018-09-26T18:13:19.343Z,13.49
2018-09-26T18:15:12.071Z,13.35
2018-09-26T18:16:11.784Z,13.30
2018-09-26T18:18:05.466Z,13.32
2018-09-26T18:19:05.435Z,13.39
2018-09-26T18:21:01.630Z,13.21
2018-09-26T18:21:59.410Z,13.27
2018-09-26T18:23:52.340Z,13.13
2018-09-26T18:24:54.424Z,13.13
2018-09-26T18:26:46.641Z,13.14
2018-09-26T18:27:46.723Z,13.09
2018-09-26T18:29:40.070Z,13.14
2018-09-26T18:30:39.974Z,13.05
2018-09-26T18:32:32.843Z,13.08
2018-09-26T18:33:33.447Z,13.11
2018-09-26T18:35:28.496Z,13.05
2018-09-26T18:36:26.298Z,13.01
2018-09-26T18:39:58.985Z,12.93
2018-09-26T18:40:52.590Z,12.96
2018-09-26T18:42:45.949Z,12.86
2018-09-26T18:43:45.932Z,12.86
2018-09-26T18:45:39.964Z,12.81
2018-09-26T18:46:39.402Z,12.79
2018-09-26T18:48:33.833Z,12.80
2018-09-26T18:49:32.415Z,12.81
2018-09-26T18:51:26.255Z,12.79
2018-09-26T18:52:26.410Z,12.71
2018-09-26T18:54:20.100Z,12.65